Time;durP1;ratioP1;P1;durP2;ratioP2;P2;SDS_P1;SDS_P2;PMS_P1;PMS_P2;Temp;Humidity;BMP_temperature;BMP_pressure;BME280_temperature;BME280_humidity;BME280_pressure;Samples;Min_cycle;Max_cycle;Signal;HPM_P1;HPM_P2
2023/08/05 00:00:38;;;;;;;14.63;5.22;;;;;;;14.14;100.00;101552.69;5129193;28;20698;-77
2023/08/05 00:03:04;;;;;;;17.70;5.78;;;;;;;14.18;100.00;101550.59;5133605;28;20013;-77
2023/08/05 00:05:29;;;;;;;15.45;5.22;;;;;;;14.22;100.00;101537.72;5126136;28;20696;-77
2023/08/05 00:07:55;;;;;;;17.00;5.65;;;;;;;14.23;100.00;101536.72;5120758;28;20150;-77
2023/08/05 00:10:21;;;;;;;17.25;5.10;;;;;;;14.25;100.00;101532.06;5132268;28;20012;-77
2023/08/05 00:12:46;;;;;;;18.98;5.55;;;;;;;14.26;100.00;101528.34;5117265;28;20015;-77
2023/08/05 00:15:12;;;;;;;18.98;5.88;;;;;;;14.28;100.00;101526.41;5130637;28;20028;-77
2023/08/05 00:17:37;;;;;;;18.90;5.93;;;;;;;14.27;100.00;101525.53;5126403;28;20090;-77
2023/08/05 00:20:03;;;;;;;22.88;6.35;;;;;;;14.28;100.00;101515.59;5128199;28;20032;-77
2023/08/05 00:22:28;;;;;;;18.20;6.50;;;;;;;14.26;100.00;101522.94;5119960;28;20020;-77
2023/08/05 00:24:53;;;;;;;23.33;6.18;;;;;;;14.24;100.00;101525.78;5119710;28;20020;-77
2023/08/05 00:27:18;;;;;;;17.90;5.75;;;;;;;14.23;100.00;101523.19;5126838;28;20135;-77
2023/08/05 00:29:46;;;;;;;15.35;5.57;;;;;;;14.21;100.00;101517.06;5126104;28;20046;-77
2023/08/05 00:32:11;;;;;;;16.58;5.45;;;;;;;14.17;100.00;101513.72;5131528;28;20012;-77
2023/08/05 00:34:36;;;;;;;18.58;6.68;;;;;;;14.17;100.00;101516.41;5128630;28;20099;-77
2023/08/05 00:37:02;;;;;;;18.38;6.50;;;;;;;14.18;100.00;101512.75;5119414;28;20016;-77
2023/08/05 00:39:28;;;;;;;17.65;5.85;;;;;;;14.19;100.00;101506.34;5091035;22;20107;-77
2023/08/05 00:41:53;;;;;;;19.08;6.38;;;;;;;14.18;100.00;101514.59;5051297;28;20083;-77
2023/08/05 00:44:19;;;;;;;15.90;6.20;;;;;;;14.20;100.00;101509.91;5046280;28;20025;-77
2023/08/05 00:46:47;;;;;;;23.80;7.22;;;;;;;14.21;100.00;101503.53;5049594;28;20859;-77
2023/08/05 00:49:13;;;;;;;20.17;6.75;;;;;;;14.21;100.00;101498.97;5050726;28;20113;-77
2023/08/05 00:51:39;;;;;;;19.05;6.45;;;;;;;14.24;100.00;101500.59;5050915;28;20056;-77
2023/08/05 00:54:04;;;;;;;17.50;6.15;;;;;;;14.27;100.00;101493.09;5052585;28;20062;-77
2023/08/05 00:56:30;;;;;;;18.25;6.40;;;;;;;14.30;100.00;101495.53;5051228;28;20093;-77
2023/08/05 00:58:55;;;;;;;20.02;6.75;;;;;;;14.31;100.00;101488.31;5051719;28;20052;-77
2023/08/05 01:01:21;;;;;;;16.77;5.93;;;;;;;14.34;100.00;101493.47;5049917;28;20036;-77
2023/08/05 01:03:47;;;;;;;22.88;7.00;;;;;;;14.34;100.00;101491.63;5051010;28;20040;-77
2023/08/05 01:06:12;;;;;;;17.20;6.85;;;;;;;14.34;100.00;101493.47;5051634;28;20476;-77
2023/08/05 01:08:38;;;;;;;16.35;5.53;;;;;;;14.34;100.00;101493.47;5049847;28;20173;-77
2023/08/05 01:11:04;;;;;;;17.92;6.30;;;;;;;14.36;100.00;101486.09;5050089;28;20105;-77
2023/08/05 01:13:32;;;;;;;18.60;6.15;;;;;;;14.34;100.00;101485.34;5050463;28;20361;-77
2023/08/05 01:15:58;;;;;;;17.60;6.22;;;;;;;14.35;100.00;101476.28;5044026;28;20089;-77
2023/08/05 01:18:24;;;;;;;19.15;5.68;;;;;;;14.30;100.00;101482.03;5050280;28;20526;-77
2023/08/05 01:20:54;;;;;;;18.75;6.97;;;;;;;14.30;100.00;101473.91;5050241;28;20120;-77
2023/08/05 01:23:25;;;;;;;16.92;6.50;;;;;;;14.31;100.00;101478.34;5051431;28;20021;-77
2023/08/05 01:25:51;;;;;;;19.52;6.88;;;;;;;14.31;100.00;101472.09;5049586;28;20053;-77
2023/08/05 01:28:17;;;;;;;16.77;6.32;;;;;;;14.28;100.00;101465.06;5050831;28;20056;-77
2023/08/05 01:30:44;;;;;;;18.63;6.13;;;;;;;14.26;100.00;101469.75;5050492;28;20115;-78
2023/08/05 01:33:12;;;;;;;17.30;6.93;;;;;;;14.24;100.00;101476.25;5049341;28;20056;-78
2023/08/05 01:35:38;;;;;;;18.13;6.18;;;;;;;14.23;100.00;101478.09;5050059;28;20079;-78
2023/08/05 01:38:03;;;;;;;19.85;6.40;;;;;;;14.22;100.00;101473.66;5052313;28;20414;-78
2023/08/05 01:40:29;;;;;;;18.90;7.00;;;;;;;14.19;100.00;101471.22;5051782;28;20048;-78
2023/08/05 01:42:58;;;;;;;19.58;6.82;;;;;;;14.17;100.00;101470.47;5050728;28;20514;-78
2023/08/05 01:45:25;;;;;;;21.77;7.18;;;;;;;14.15;100.00;101469.72;5051552;28;20064;-78
2023/08/05 01:47:50;;;;;;;22.02;7.82;;;;;;;14.14;100.00;101471.59;5051597;28;20116;-78
2023/08/05 01:50:16;;;;;;;16.08;5.75;;;;;;;14.12;100.00;101478.09;5046833;28;20088;-79
2023/08/05 01:52:41;;;;;;;20.70;7.22;;;;;;;14.10;100.00;101477.31;5050833;28;20029;-79
2023/08/05 01:55:06;;;;;;;18.52;6.93;;;;;;;14.07;100.00;101475.75;5049234;28;20472;-78
2023/08/05 01:57:32;;;;;;;17.02;6.53;;;;;;;14.04;100.00;101477.81;5047634;28;20389;-78
2023/08/05 01:59:57;;;;;;;20.88;6.85;;;;;;;13.99;100.00;101472.78;5049571;28;20040;-79
2023/08/05 02:02:22;;;;;;;20.70;6.68;;;;;;;13.97;100.00;101481.00;5051129;28;20098;-79
2023/08/05 02:04:48;;;;;;;21.35;7.22;;;;;;;13.96;100.00;101479.25;5049577;28;20364;-78
2023/08/05 02:07:13;;;;;;;19.85;7.50;;;;;;;13.95;100.00;101473.97;5050006;28;20017;-78
2023/08/05 02:09:38;;;;;;;18.73;7.05;;;;;;;13.94;100.00;101475.84;5050053;28;20035;-78
2023/08/05 02:12:04;;;;;;;21.15;7.57;;;;;;;13.93;100.00;101473.25;5049893;28;20056;-78
2023/08/05 02:14:29;;;;;;;18.75;7.65;;;;;;;13.93;100.00;101476.81;5049396;28;20082;-78
2023/08/05 02:16:55;;;;;;;18.98;7.07;;;;;;;13.93;100.00;101481.34;5049968;28;20063;-78
2023/08/05 02:19:20;;;;;;;20.42;7.32;;;;;;;13.90;100.00;101471.63;5049783;28;20067;-78
2023/08/05 02:21:45;;;;;;;18.58;7.38;;;;;;;13.89;100.00;101463.66;5051376;28;20138;-78
2023/08/05 02:24:11;;;;;;;18.67;7.05;;;;;;;13.81;100.00;101465.09;5050254;28;20021;-78
2023/08/05 02:26:37;;;;;;;19.70;8.00;;;;;;;13.78;100.00;101464.50;5049643;28;20033;-78
2023/08/05 02:29:02;;;;;;;18.60;7.32;;;;;;;13.75;100.00;101459.34;5051122;28;20037;-78
2023/08/05 02:31:28;;;;;;;19.95;7.65;;;;;;;13.72;100.00;101454.13;5041375;28;20459;-78
2023/08/05 02:33:53;;;;;;;20.63;7.63;;;;;;;13.71;100.00;101463.25;5050991;28;20043;-78
2023/08/05 02:36:18;;;;;;;17.90;6.68;;;;;;;13.65;100.00;101459.16;5049626;28;20040;-78
2023/08/05 02:38:43;;;;;;;20.13;7.85;;;;;;;13.64;100.00;101452.88;5050473;28;20041;-78
2023/08/05 02:41:09;;;;;;;20.98;8.15;;;;;;;13.62;100.00;101446.75;5056623;28;20083;-77
2023/08/05 02:43:34;;;;;;;24.67;7.88;;;;;;;13.61;100.00;101450.41;5058516;28;20073;-77
2023/08/05 02:46:00;;;;;;;19.75;7.47;;;;;;;13.59;100.00;101457.78;5056796;28;20017;-76
2023/08/05 02:48:25;;;;;;;19.20;7.35;;;;;;;13.59;100.00;101438.88;5056829;28;20028;-76
2023/08/05 02:50:52;;;;;;;20.20;7.65;;;;;;;13.55;100.00;101445.50;5051395;28;20388;-77
2023/08/05 02:53:18;;;;;;;21.85;7.70;;;;;;;13.56;100.00;101449.09;5057902;28;20025;-77
2023/08/05 02:55:44;;;;;;;22.25;8.55;;;;;;;13.53;100.00;101443.88;5060820;28;20089;-76
2023/08/05 02:58:09;;;;;;;20.85;8.43;;;;;;;13.52;100.00;101443.03;5061548;28;20025;-77
2023/08/05 03:00:35;;;;;;;21.45;7.72;;;;;;;13.51;100.00;101438.59;5062385;28;20131;-76
2023/08/05 03:03:01;;;;;;;19.55;7.60;;;;;;;13.48;100.00;101446.09;5059344;28;20025;-76
2023/08/05 03:05:26;;;;;;;17.38;7.30;;;;;;;13.46;100.00;101448.91;5062046;28;20104;-76
2023/08/05 03:07:52;;;;;;;19.58;8.20;;;;;;;13.41;100.00;101434.88;5060571;28;20263;-76
2023/08/05 03:10:17;;;;;;;20.55;8.10;;;;;;;13.37;100.00;101431.56;5061908;28;20025;-76
2023/08/05 03:12:42;;;;;;;19.30;8.18;;;;;;;13.37;100.00;101419.91;5060013;28;20035;-76
2023/08/05 03:15:08;;;;;;;20.13;8.02;;;;;;;13.36;100.00;101421.75;5059045;28;20136;-76
2023/08/05 03:17:34;;;;;;;20.60;8.38;;;;;;;13.36;100.00;101420.88;5060351;28;20032;-76
2023/08/05 03:20:04;;;;;;;21.65;8.00;;;;;;;13.33;100.00;101419.25;5060843;28;20322;-77
2023/08/05 03:22:29;;;;;;;20.42;7.97;;;;;;;13.34;100.00;101403.91;5051761;28;20118;-76
2023/08/05 03:24:55;;;;;;;24.27;8.55;;;;;;;13.32;100.00;101409.41;5061138;28;20373;-76
2023/08/05 03:27:20;;;;;;;20.95;8.02;;;;;;;13.28;100.00;101403.41;5059892;28;20037;-76
2023/08/05 03:29:46;;;;;;;19.83;7.72;;;;;;;13.30;100.00;101403.28;5056200;28;20025;-76
2023/08/05 03:32:12;;;;;;;20.20;8.10;;;;;;;13.28;100.00;101408.81;5056454;28;20380;-76
2023/08/05 03:34:37;;;;;;;21.13;8.32;;;;;;;13.28;100.00;101411.50;5057872;28;20029;-76
2023/08/05 03:37:02;;;;;;;21.15;9.07;;;;;;;13.26;100.00;101409.88;5055454;28;20029;-76
2023/08/05 03:39:28;;;;;;;21.30;8.35;;;;;;;13.26;100.00;101410.75;5058001;28;20060;-76
2023/08/05 03:41:54;;;;;;;20.20;8.02;;;;;;;13.24;100.00;101410.00;5057724;28;20036;-76
2023/08/05 03:44:20;;;;;;;22.35;9.52;;;;;;;13.23;100.00;101396.63;5055872;28;20115;-76
2023/08/05 03:46:45;;;;;;;19.27;8.00;;;;;;;13.21;100.00;101391.34;5059379;28;20049;-76
2023/08/05 03:49:10;;;;;;;20.10;8.63;;;;;;;13.19;100.00;101389.72;5059026;28;20051;-77
2023/08/05 03:51:36;;;;;;;22.15;8.57;;;;;;;13.19;100.00;101374.41;5052286;28;20029;-78
2023/08/05 03:54:01;;;;;;;19.95;8.85;;;;;;;13.22;100.00;101387.69;5053419;28;20032;-78
2023/08/05 03:56:27;;;;;;;21.75;9.63;;;;;;;13.22;100.00;101370.59;5051769;28;20094;-78
2023/08/05 03:58:56;;;;;;;20.15;8.77;;;;;;;13.24;100.00;101374.91;5052178;28;20116;-78
2023/08/05 04:01:22;;;;;;;19.48;8.07;;;;;;;13.24;100.00;101366.81;5052121;28;20385;-78
2023/08/05 04:03:49;;;;;;;21.52;8.95;;;;;;;13.27;100.00;101363.88;5053214;28;20039;-78
2023/08/05 04:06:15;;;;;;;21.65;9.48;;;;;;;13.28;100.00;101362.91;5049802;28;20419;-78
2023/08/05 04:08:41;;;;;;;20.88;9.80;;;;;;;13.27;100.00;101366.56;5053434;28;20047;-78
2023/08/05 04:11:06;;;;;;;22.90;9.48;;;;;;;13.29;100.00;101367.34;5053343;28;20453;-79
2023/08/05 04:13:33;;;;;;;19.42;7.95;;;;;;;13.32;100.00;101365.38;5053323;28;20029;-78
2023/08/05 04:16:03;;;;;;;21.83;9.40;;;;;;;13.34;100.00;101372.41;5052935;28;20473;-78
2023/08/05 04:18:29;;;;;;;19.98;8.55;;;;;;;13.32;100.00;101376.16;5051858;28;20020;-78
2023/08/05 04:20:56;;;;;;;22.38;9.10;;;;;;;13.33;100.00;101365.25;5053093;28;20059;-78
2023/08/05 04:23:23;;;;;;;20.67;8.65;;;;;;;13.35;100.00;101348.97;5050534;28;20059;-78
2023/08/05 04:25:49;;;;;;;20.25;8.80;;;;;;;13.35;100.00;101339.00;5053038;28;20072;-78
2023/08/05 04:28:14;;;;;;;20.17;8.82;;;;;;;13.35;100.00;101330.91;5051791;28;20025;-78
2023/08/05 04:30:40;;;;;;;21.90;9.43;;;;;;;13.34;100.00;101331.91;5051539;28;20357;-78
2023/08/05 04:33:06;;;;;;;22.85;9.75;;;;;;;13.35;100.00;101332.75;5050755;28;20108;-78
2023/08/05 04:35:32;;;;;;;22.58;9.77;;;;;;;13.34;100.00;101325.59;5053044;28;20419;-78
2023/08/05 04:37:57;;;;;;;23.27;9.05;;;;;;;13.38;100.00;101335.22;5052835;28;20054;-78
2023/08/05 04:40:22;;;;;;;21.88;9.68;;;;;;;13.37;100.00;101323.56;5052909;28;20087;-78
2023/08/05 04:42:48;;;;;;;21.60;9.48;;;;;;;13.37;100.00;101318.19;5052788;28;20029;-78
2023/08/05 04:45:14;;;;;;;21.25;9.43;;;;;;;13.40;100.00;101307.13;5051435;28;20032;-78
2023/08/05 04:47:40;;;;;;;22.00;8.80;;;;;;;13.40;100.00;101299.03;5051873;28;20059;-78
2023/08/05 04:50:09;;;;;;;19.77;8.90;;;;;;;13.41;100.00;101316.09;5049220;28;20353;-78
2023/08/05 04:52:34;;;;;;;20.83;9.45;;;;;;;13.41;100.00;101306.16;5052682;28;20037;-78
2023/08/05 04:55:09;;;;;;;24.25;9.50;;;;;;;13.42;100.00;101307.00;5050903;28;20055;-78
2023/08/05 04:57:34;;;;;;;21.98;9.82;;;;;;;13.44;100.00;101310.44;5051054;28;20034;-78
2023/08/05 05:00:00;;;;;;;21.88;9.43;;;;;;;13.44;100.00;101307.75;5051140;28;20029;-78
2023/08/05 05:02:25;;;;;;;20.85;8.52;;;;;;;13.46;100.00;101313.91;5050937;28;20029;-78
2023/08/05 05:04:50;;;;;;;22.00;9.27;;;;;;;13.45;100.00;101312.16;5049859;28;20429;-78
2023/08/05 05:07:16;;;;;;;21.88;9.85;;;;;;;13.46;100.00;101320.16;5038024;28;20115;-78
2023/08/05 05:09:41;;;;;;;24.70;10.07;;;;;;;13.49;100.00;101319.06;5050858;28;20048;-78
2023/08/05 05:12:07;;;;;;;23.17;9.07;;;;;;;13.49;100.00;101305.56;5043566;28;20020;-78
2023/08/05 05:14:33;;;;;;;21.55;9.18;;;;;;;13.52;100.00;101309.88;5050548;28;20037;-78
2023/08/05 05:16:58;;;;;;;22.15;10.15;;;;;;;13.55;100.00;101310.47;5051300;28;20029;-78
2023/08/05 05:19:24;;;;;;;23.10;10.68;;;;;;;13.58;100.00;101298.56;5050853;28;20041;-78
2023/08/05 05:21:49;;;;;;;21.35;8.98;;;;;;;13.55;100.00;101305.06;5051879;28;20079;-78
2023/08/05 05:24:15;;;;;;;23.80;9.00;;;;;;;13.56;100.00;101303.25;5050420;28;20092;-78
2023/08/05 05:26:40;;;;;;;24.08;10.38;;;;;;;13.60;100.00;101304.69;5050766;28;20028;-78
2023/08/05 05:29:05;;;;;;;22.50;10.20;;;;;;;13.61;100.00;101304.56;5052007;28;20024;-78
2023/08/05 05:31:31;;;;;;;21.30;9.13;;;;;;;13.64;100.00;101301.63;5041585;28;20033;-78
2023/08/05 05:33:56;;;;;;;22.63;9.68;;;;;;;13.67;100.00;101305.94;5048416;28;20480;-78
2023/08/05 05:36:21;;;;;;;33.13;10.50;;;;;;;13.71;100.00;101302.03;5049259;28;20425;-78
2023/08/05 05:38:47;;;;;;;22.67;10.23;;;;;;;13.74;100.00;101295.53;5050045;28;20048;-78
2023/08/05 05:41:12;;;;;;;20.70;9.05;;;;;;;13.73;100.00;101299.19;5050094;28;20385;-78
2023/08/05 05:43:38;;;;;;;23.92;10.95;;;;;;;13.76;100.00;101285.44;5051534;28;20040;-78
2023/08/05 05:46:04;;;;;;;25.02;10.23;;;;;;;13.78;100.00;101286.19;5049815;28;20025;-78
2023/08/05 05:48:29;;;;;;;23.58;10.57;;;;;;;13.84;100.00;101285.69;5048525;28;20025;-78
2023/08/05 05:50:54;;;;;;;23.65;10.38;;;;;;;13.91;100.00;101284.22;5038389;28;20035;-78
2023/08/05 05:53:21;;;;;;;22.98;9.98;;;;;;;13.93;100.00;101294.91;5051427;28;20126;-78
2023/08/05 05:55:50;;;;;;;21.85;10.25;;;;;;;13.98;100.00;101289.97;5051199;28;20064;-78
2023/08/05 05:58:15;;;;;;;23.77;11.40;;;;;;;14.07;100.00;101288.38;5049267;28;20025;-78
2023/08/05 06:00:41;;;;;;;21.67;10.00;;;;;;;14.14;100.00;101282.38;5050356;28;20029;-78
2023/08/05 06:03:06;;;;;;;22.45;10.57;;;;;;;14.17;100.00;101281.22;5051111;28;20063;-79
2023/08/05 06:05:32;;;;;;;23.33;10.90;;;;;;;14.23;100.00;101286.16;5048442;28;20117;-78
2023/08/05 06:07:57;;;;;;;22.40;9.77;;;;;;;14.28;100.00;101281.22;5050949;28;20029;-78
2023/08/05 06:10:23;;;;;;;21.67;9.65;;;;;;;14.34;100.00;101277.16;5054570;28;20037;-77
2023/08/05 06:12:48;;;;;;;25.48;10.88;;;;;;;14.38;100.00;101270.50;5059058;28;20078;-76
2023/08/05 06:15:13;;;;;;;22.05;9.63;;;;;;;14.43;100.00;101273.69;5060070;28;20112;-77
2023/08/05 06:17:39;;;;;;;24.05;9.80;;;;;;;14.48;100.00;101278.69;5061135;28;20096;-77
2023/08/05 06:20:08;;;;;;;22.40;10.63;;;;;;;14.53;100.00;101279.19;5059272;28;20044;-76
2023/08/05 06:22:34;;;;;;;22.15;9.50;;;;;;;14.59;100.00;101280.53;5059611;28;20112;-78
2023/08/05 06:24:59;;;;;;;21.98;9.43;;;;;;;14.62;100.00;101269.47;5062921;28;20020;-76
2023/08/05 06:27:24;;;;;;;21.17;9.52;;;;;;;14.66;100.00;101265.53;5061086;28;20032;-76
2023/08/05 06:29:50;;;;;;;20.52;8.77;;;;;;;14.68;100.00;101264.44;5065487;28;20051;-76
2023/08/05 06:32:15;;;;;;;22.85;9.93;;;;;;;14.75;100.00;101267.44;5063514;28;20063;-76
2023/08/05 06:34:40;;;;;;;20.75;9.38;;;;;;;14.79;100.00;101274.34;5054356;28;20048;-77
2023/08/05 06:37:06;;;;;;;22.30;9.43;;;;;;;14.84;100.00;101265.81;5062576;28;20036;-77
2023/08/05 06:39:35;;;;;;;21.13;8.15;;;;;;;14.86;100.00;101271.94;5062464;28;20110;-77
2023/08/05 06:42:00;;;;;;;23.10;8.73;;;;;;;14.89;100.00;101265.41;5063109;28;20434;-76
2023/08/05 06:44:26;;;;;;;23.50;9.15;;;;;;;14.91;100.00;101260.75;5064874;28;20029;-77
2023/08/05 06:46:51;;;;;;;21.25;9.18;;;;;;;14.97;100.00;101249.41;5065565;28;20107;-78
2023/08/05 06:49:16;;;;;;;24.80;9.52;;;;;;;14.95;100.00;101257.66;5064094;28;20033;-77
2023/08/05 06:51:42;;;;;;;19.85;8.60;;;;;;;15.00;100.00;101263.50;5063875;28;20037;-78
2023/08/05 06:54:10;;;;;;;22.92;9.27;;;;;;;15.04;100.00;101256.00;5061168;28;20033;-77
2023/08/05 06:56:36;;;;;;;23.35;9.65;;;;;;;15.08;100.00;101251.16;5062519;28;20021;-77
2023/08/05 06:59:01;;;;;;;22.45;9.77;;;;;;;15.12;100.00;101245.34;5056195;28;20086;-77
2023/08/05 07:01:26;;;;;;;24.55;10.25;;;;;;;15.19;100.00;101245.69;5055992;28;20033;-77
2023/08/05 07:03:52;;;;;;;20.95;9.98;;;;;;;15.24;100.00;101248.84;5058424;28;20484;-77
2023/08/05 07:06:17;;;;;;;21.40;9.90;;;;;;;15.29;100.00;101240.34;5058810;28;20028;-76
2023/08/05 07:08:42;;;;;;;24.48;9.95;;;;;;;15.32;100.00;101230.09;5059938;28;20491;-77
2023/08/05 07:11:08;;;;;;;21.55;8.48;;;;;;;15.41;100.00;101238.41;5062060;28;20036;-76
2023/08/05 07:13:33;;;;;;;20.65;9.15;;;;;;;15.45;100.00;101234.44;5059270;28;20158;-76
2023/08/05 07:16:03;;;;;;;21.65;9.15;;;;;;;15.55;100.00;101246.19;5058715;28;20040;-76
2023/08/05 07:18:31;;;;;;;21.35;8.63;;;;;;;15.61;100.00;101237.50;5055010;28;20127;-76
2023/08/05 07:20:57;;;;;;;21.35;8.27;;;;;;;15.66;100.00;101251.50;5059878;28;20051;-76
2023/08/05 07:23:23;;;;;;;27.75;9.02;;;;;;;15.71;100.00;101240.25;5059184;28;20041;-76
2023/08/05 07:25:48;;;;;;;19.73;8.15;;;;;;;15.77;100.00;101234.31;5061009;28;20040;-76
2023/08/05 07:28:14;;;;;;;18.85;7.68;;;;;;;15.81;100.00;101238.50;5058518;28;20029;-77
2023/08/05 07:30:39;;;;;;;19.83;8.55;;;;;;;15.85;100.00;101236.34;5057770;28;20031;-77
2023/08/05 07:33:08;;;;;;;20.67;7.88;;;;;;;15.92;100.00;101244.81;5060830;28;20013;-79
2023/08/05 07:35:33;;;;;;;20.48;8.88;;;;;;;15.97;100.00;101237.94;5054138;28;20037;-76
2023/08/05 07:38:01;;;;;;;22.58;8.63;;;;;;;16.03;100.00;101240.13;5061726;28;20105;-75
2023/08/05 07:40:27;;;;;;;20.80;8.45;;;;;;;16.11;100.00;101236.72;5058177;28;20114;-76
2023/08/05 07:42:53;;;;;;;25.33;8.35;;;;;;;16.16;100.00;101239.00;5058926;28;20021;-77
2023/08/05 07:45:21;;;;;;;19.08;7.80;;;;;;;16.18;100.00;101232.44;5057581;28;20059;-77
2023/08/05 07:47:47;;;;;;;20.48;8.50;;;;;;;16.22;100.00;101225.75;5058349;28;20025;-77
2023/08/05 07:50:16;;;;;;;20.40;8.68;;;;;;;16.26;100.00;101223.59;5059223;28;20032;-76
2023/08/05 07:52:42;;;;;;;22.02;8.68;;;;;;;16.28;100.00;101220.75;5051927;28;20044;-76
2023/08/05 07:55:08;;;;;;;20.85;8.85;;;;;;;16.33;100.00;101208.47;5058650;28;20028;-76
2023/08/05 07:57:35;;;;;;;21.33;8.50;;;;;;;16.36;100.00;101205.47;5061243;28;20056;-76
2023/08/05 08:00:00;;;;;;;20.60;8.15;;;;;;;16.43;100.00;101203.91;5057605;28;20549;-77
2023/08/05 08:02:25;;;;;;;20.80;7.43;;;;;;;16.56;100.00;101194.63;5057151;28;20123;-76
2023/08/05 08:04:54;;;;;;;20.05;7.72;;;;;;;16.65;100.00;101185.63;5056575;28;20040;-77
2023/08/05 08:07:21;;;;;;;19.43;6.83;;;;;;;16.70;100.00;101183.34;5057998;28;20029;-77
2023/08/05 08:09:46;;;;;;;18.20;6.60;;;;;;;16.73;100.00;101174.06;5051936;28;20032;-77
2023/08/05 08:12:11;;;;;;;20.63;7.45;;;;;;;16.76;100.00;101182.78;5056043;28;20025;-76
2023/08/05 08:14:37;;;;;;;15.90;5.90;;;;;;;16.80;100.00;101177.91;5058712;28;20025;-77
2023/08/05 08:17:02;;;;;;;17.17;6.32;;;;;;;16.81;100.00;101174.19;5057248;28;20406;-76
2023/08/05 08:19:27;;;;;;;16.48;6.28;;;;;;;16.85;100.00;101172.03;5058673;28;20046;-77
2023/08/05 08:21:53;;;;;;;13.88;4.93;;;;;;;16.86;100.00;101171.88;5057057;28;20120;-77
2023/08/05 08:24:18;;;;;;;16.15;5.80;;;;;;;16.89;100.00;101168.06;5058051;28;20067;-76
2023/08/05 08:26:43;;;;;;;15.82;5.63;;;;;;;16.92;100.00;101170.47;5057558;28;20055;-76
2023/08/05 08:29:09;;;;;;;15.10;5.30;;;;;;;16.94;100.00;101169.34;5058962;28;20425;-78
2023/08/05 08:31:34;;;;;;;17.35;5.50;;;;;;;16.95;100.00;101170.19;5055582;28;20025;-79
2023/08/05 08:33:59;;;;;;;14.23;5.38;;;;;;;16.97;100.00;101162.75;5049907;28;20029;-79
2023/08/05 08:36:25;;;;;;;12.65;4.50;;;;;;;17.07;100.00;101157.28;5053114;28;20083;-79
2023/08/05 08:38:51;;;;;;;14.50;5.10;;;;;;;17.14;100.00;101147.53;5053213;28;20041;-79
2023/08/05 08:41:16;;;;;;;12.57;4.82;;;;;;;17.18;100.00;101153.56;5053095;28;20099;-79
2023/08/05 08:43:43;;;;;;;16.55;5.35;;;;;;;17.20;98.19;101141.50;5052479;28;20349;-79
2023/08/05 08:46:10;;;;;;;14.73;4.47;;;;;;;17.24;98.16;101137.50;5051215;28;20028;-79
2023/08/05 08:48:37;;;;;;;13.55;4.72;;;;;;;17.33;98.20;101135.75;5052733;28;20107;-79
2023/08/05 08:51:03;;;;;;;17.63;5.32;;;;;;;17.43;99.25;101127.56;5050655;28;20025;-80
2023/08/05 08:53:31;;;;;;;14.45;4.95;;;;;;;17.50;96.70;101120.53;5051046;28;20040;-79
2023/08/05 08:55:56;;;;;;;13.20;4.75;;;;;;;17.61;98.83;101125.75;5049575;28;20465;-79
2023/08/05 08:58:22;;;;;;;16.33;5.38;;;;;;;17.65;95.52;101129.00;5052264;28;20079;-80
2023/08/05 09:00:49;;;;;;;11.85;4.65;;;;;;;17.67;94.26;101126.16;5052163;28;20032;-79
2023/08/05 09:03:15;;;;;;;17.80;5.75;;;;;;;17.68;93.45;101112.41;5048469;28;20032;-80
2023/08/05 09:05:45;;;;;;;13.98;5.20;;;;;;;17.70;94.42;101115.84;5049408;28;20464;-80
2023/08/05 09:08:10;;;;;;;15.63;5.32;;;;;;;17.75;94.14;101107.22;5042521;28;20056;-79
2023/08/05 09:10:37;;;;;;;14.27;5.20;;;;;;;17.80;95.26;101103.03;5050317;28;20048;-79
2023/08/05 09:13:03;;;;;;;13.68;5.07;;;;;;;17.82;94.78;101102.88;5050284;28;20017;-79
2023/08/05 09:15:38;;;;;;;12.60;4.57;;;;;;;17.86;95.92;101095.25;5046474;28;20067;-79
2023/08/05 09:18:05;;;;;;;13.30;4.93;;;;;;;17.81;93.53;101091.13;5049942;28;20028;-79
2023/08/05 09:20:36;;;;;;;16.42;5.30;;;;;;;17.79;94.60;101090.44;5048574;28;20028;-79
2023/08/05 09:23:04;;;;;;;13.55;4.30;;;;;;;17.82;97.28;101078.41;5048572;28;20538;-79
2023/08/05 09:25:30;;;;;;;15.18;5.60;;;;;;;17.85;93.52;101080.81;5043613;28;20020;-80
2023/08/05 09:27:57;;;;;;;14.98;5.15;;;;;;;17.86;92.90;101076.22;5050696;28;20032;-80
2023/08/05 09:30:24;;;;;;;17.85;6.22;;;;;;;17.86;93.15;101066.19;5051538;28;20456;-79
2023/08/05 09:32:50;;;;;;;16.75;5.43;;;;;;;17.89;94.66;101071.34;5048741;28;20395;-79
2023/08/05 09:35:16;;;;;;;18.02;6.13;;;;;;;17.91;92.40;101061.19;5050475;28;20017;-79
2023/08/05 09:37:46;;;;;;;14.85;5.40;;;;;;;17.95;93.43;101059.00;5051296;28;20565;-79
2023/08/05 09:40:32;;;;;;;17.40;5.95;;;;;;;17.98;93.36;101061.44;5050275;28;20049;-80
2023/08/05 09:42:59;;;;;;;16.15;5.47;;;;;;;18.02;92.00;101062.81;5044700;28;20029;-78
2023/08/05 09:45:27;;;;;;;18.67;6.30;;;;;;;18.03;92.70;101061.81;5051104;28;20085;-78
2023/08/05 09:48:04;;;;;;;17.95;6.07;;;;;;;18.00;92.59;101056.69;5043568;28;20094;-78
2023/08/05 09:50:31;;;;;;;16.55;5.43;;;;;;;17.95;92.49;101049.00;5048008;28;20032;-77
2023/08/05 09:52:59;;;;;;;17.13;5.10;;;;;;;17.97;93.62;101046.97;5051440;28;20055;-77
2023/08/05 09:55:27;;;;;;;14.35;5.35;;;;;;;17.95;94.06;101037.25;5051459;28;20033;-78
2023/08/05 09:57:53;;;;;;;13.75;5.00;;;;;;;17.93;92.32;101042.00;5034808;28;20040;-78
2023/08/05 10:00:18;;;;;;;15.02;5.07;;;;;;;17.93;94.39;101033.84;5048257;28;20143;-79
2023/08/05 10:02:45;;;;;;;16.17;5.07;;;;;;;17.91;94.19;101036.72;5050298;28;20579;-78
2023/08/05 10:05:12;;;;;;;14.50;4.63;;;;;;;17.89;92.43;101027.84;5049366;28;20029;-78
2023/08/05 10:07:40;;;;;;;12.98;4.32;;;;;;;17.91;93.82;101028.56;5052428;28;20396;-78
2023/08/05 10:10:16;;;;;;;13.63;5.28;;;;;;;17.90;93.13;101021.41;5051363;28;20048;-77
2023/08/05 10:12:52;;;;;;;15.32;5.65;;;;;;;17.88;94.07;101025.25;5051088;28;20035;-77
2023/08/05 10:15:23;;;;;;;13.82;5.25;;;;;;;17.84;95.57;101021.16;5042575;28;20024;-78
2023/08/05 10:17:48;;;;;;;16.38;6.40;;;;;;;17.78;94.83;101011.75;5052421;28;20053;-78
2023/08/05 10:20:14;;;;;;;18.88;5.90;;;;;;;17.74;95.45;101016.63;5052129;28;20070;-78
2023/08/05 10:22:39;;;;;;;15.65;5.88;;;;;;;17.73;93.99;101014.94;5050277;28;20037;-79
2023/08/05 10:25:06;;;;;;;16.70;5.90;;;;;;;17.74;94.20;101018.50;5051507;28;20037;-78
2023/08/05 10:27:36;;;;;;;15.32;6.47;;;;;;;17.75;93.15;101018.34;5050979;28;20031;-78
2023/08/05 10:30:13;;;;;;;15.57;6.32;;;;;;;17.74;93.49;101019.34;5053014;28;20036;-78
2023/08/05 10:32:55;;;;;;;20.17;7.30;;;;;;;17.77;95.36;101015.47;5045244;28;20083;-78
2023/08/05 10:35:27;;;;;;;18.63;6.13;;;;;;;17.76;93.56;101008.31;5051716;28;20119;-78
2023/08/05 10:38:05;;;;;;;17.67;6.80;;;;;;;17.76;93.69;100997.44;5048343;28;20037;-77
2023/08/05 10:40:40;;;;;;;17.85;7.43;;;;;;;17.79;93.47;100992.56;5050833;28;20056;-78
2023/08/05 10:43:10;;;;;;;17.60;6.40;;;;;;;17.82;94.45;100994.13;5051467;28;20032;-78
2023/08/05 10:45:42;;;;;;;18.00;6.13;;;;;;;17.82;93.69;100994.97;5049853;28;20017;-78
2023/08/05 10:48:09;;;;;;;17.63;5.95;;;;;;;17.85;94.95;100993.81;5049898;28;20021;-78
2023/08/05 10:50:38;;;;;;;16.35;6.07;;;;;;;17.88;93.08;100996.22;5051568;28;20032;-75
2023/08/05 10:53:05;;;;;;;;;;;;;;;17.94;94.80;100992.91;5050534;28;20485;-78
2023/08/05 10:55:30;;;;;;;17.00;6.15;;;;;;;17.91;92.83;100998.66;5050318;28;20264;-78
2023/08/05 10:57:58;;;;;;;15.60;6.40;;;;;;;17.89;89.80;101000.66;5052153;28;20029;-79
2023/08/05 11:00:23;;;;;;;14.80;6.15;;;;;;;17.89;90.27;100988.91;5045854;28;20044;-78
2023/08/05 11:03:24;;;;;;;18.70;6.80;;;;;;;17.89;92.29;100987.06;5049439;28;20029;-78
2023/08/05 11:05:50;;;;;;;14.90;6.07;;;;;;;17.90;90.79;100988.78;5052161;28;20028;-78
2023/08/05 11:08:20;;;;;;;16.05;5.68;;;;;;;17.91;89.62;100982.34;5052165;28;20025;-78